Time;durP1;ratioP1;P1;durP2;ratioP2;P2;SDS_P1;SDS_P2;PMS_P1;PMS_P2;Temp;Humidity;BMP_temperature;BMP_pressure;BME280_temperature;BME280_humidity;BME280_pressure;Samples;Min_cycle;Max_cycle;Signal;HPM_P1;HPM_P2
2023/09/06 00:00:27;;;;;;;5.30;4.80;;;22.30;99.90;;;;;;4956519;29;20020;-91
2023/09/06 00:02:53;;;;;;;5.45;4.85;;;22.20;99.90;;;;;;4954884;29;20038;-91
2023/09/06 00:05:19;;;;;;;4.63;4.22;;;22.20;99.90;;;;;;4954843;29;20019;-91
2023/09/06 00:07:44;;;;;;;6.20;4.53;;;22.20;99.90;;;;;;4954832;29;20476;-92
2023/09/06 00:10:10;;;;;;;4.50;4.20;;;22.20;99.90;;;;;;4954993;29;20030;-91
2023/09/06 00:12:36;;;;;;;4.75;4.20;;;22.10;99.90;;;;;;4954333;29;20467;-91
2023/09/06 00:15:03;;;;;;;4.75;4.28;;;22.20;99.90;;;;;;4955185;29;20030;-91
2023/09/06 00:17:29;;;;;;;5.10;4.30;;;22.10;99.90;;;;;;4954838;29;20074;-91
2023/09/06 00:19:54;;;;;;;7.22;4.03;;;22.10;99.90;;;;;;4954114;29;20031;-91
2023/09/06 00:22:20;;;;;;;8.82;5.18;;;22.10;99.90;;;;;;4955366;29;20023;-91
2023/09/06 00:24:46;;;;;;;6.00;4.00;;;22.10;99.90;;;;;;4958651;29;20031;-91
2023/09/06 00:27:14;;;;;;;4.70;4.30;;;22.00;99.90;;;;;;4976522;29;20031;-90
2023/09/06 00:29:41;;;;;;;15.85;4.57;;;22.00;99.90;;;;;;4969764;28;20504;-91
2023/09/06 00:32:06;;;;;;;6.15;4.70;;;22.00;99.90;;;;;;4964431;28;20043;-91
2023/09/06 00:34:33;;;;;;;6.68;4.55;;;22.00;99.90;;;;;;4958282;29;20027;-90
2023/09/06 00:37:01;;;;;;;4.75;4.35;;;22.00;99.90;;;;;;4961888;29;20053;-91
2023/09/06 00:39:30;;;;;;;5.00;4.40;;;22.00;99.90;;;;;;4961648;29;20063;-91
2023/09/06 00:41:55;;;;;;;4.75;4.35;;;22.10;99.90;;;;;;4962173;29;20475;-91
2023/09/06 00:44:21;;;;;;;5.72;4.50;;;22.90;99.90;;;;;;4961981;29;20078;-92
2023/09/06 00:46:47;;;;;;;5.00;4.15;;;21.80;99.90;;;;;;4961667;29;20393;-92
2023/09/06 00:49:13;;;;;;;4.57;4.15;;;21.90;99.90;;;;;;4961214;29;20143;-91
2023/09/06 00:51:39;;;;;;;6.30;4.45;;;21.90;99.90;;;;;;4959427;29;20023;-91
2023/09/06 00:54:04;;;;;;;6.13;4.70;;;21.90;99.90;;;;;;4957418;29;20542;-93
2023/09/06 00:56:30;;;;;;;5.50;4.55;;;21.80;99.90;;;;;;4958493;29;20027;-92
2023/09/06 00:58:56;;;;;;;7.38;5.18;;;21.90;99.90;;;;;;4959270;29;20039;-93
2023/09/06 01:01:22;;;;;;;9.63;5.13;;;21.80;99.90;;;;;;4957034;29;20035;-91
2023/09/06 01:03:47;;;;;;;7.22;5.20;;;21.70;99.90;;;;;;4957542;29;20032;-91
2023/09/06 01:06:27;;;;;;;9.02;4.50;;;21.70;99.90;;;;;;4957793;29;20114;-92
2023/09/06 01:08:56;;;;;;;7.18;4.50;;;21.70;99.90;;;;;;4956778;29;20043;-91
2023/09/06 01:11:27;;;;;;;5.97;5.37;;;21.80;99.90;;;;;;4957799;29;20047;-92
2023/09/06 01:13:59;;;;;;;6.13;5.35;;;21.60;99.90;;;;;;4957227;29;20271;-91
2023/09/06 01:16:45;;;;;;;5.85;5.20;;;21.60;99.90;;;;;;4958921;29;20059;-92
2023/09/06 01:19:13;;;;;;;8.57;4.78;;;21.60;99.90;;;;;;4957511;29;20066;-91
2023/09/06 01:21:50;;;;;;;5.10;4.70;;;21.60;99.90;;;;;;4957273;29;20480;-92
2023/09/06 01:24:17;;;;;;;6.75;4.47;;;21.50;99.90;;;;;;4957449;29;20035;-92
2023/09/06 01:26:42;;;;;;;9.27;5.20;;;21.50;99.90;;;;;;4957624;29;20555;-91
2023/09/06 01:29:08;;;;;;;5.80;4.70;;;21.30;99.90;;;;;;4971588;29;20055;-91
2023/09/06 01:31:34;;;;;;;7.72;4.93;;;21.40;99.90;;;;;;4975695;29;20106;-92
2023/09/06 01:33:59;;;;;;;4.97;4.57;;;21.40;99.90;;;;;;4962440;29;20506;-92
2023/09/06 01:36:26;;;;;;;8.07;5.30;;;21.40;99.90;;;;;;4957406;29;20388;-91
2023/09/06 01:38:51;;;;;;;7.00;4.70;;;21.40;99.90;;;;;;4963461;29;20081;-92
2023/09/06 01:41:17;;;;;;;6.03;4.65;;;21.30;99.90;;;;;;4960033;29;20157;-92
2023/09/06 01:43:42;;;;;;;12.18;5.38;;;21.40;99.90;;;;;;4956320;28;20028;-91
2023/09/06 01:46:08;;;;;;;6.13;5.38;;;21.30;99.90;;;;;;4957605;29;20035;-91
2023/09/06 01:48:34;;;;;;;6.03;4.90;;;21.30;99.90;;;;;;4956924;29;20123;-92
2023/09/06 01:50:59;;;;;;;5.20;4.70;;;21.30;99.90;;;;;;4956531;29;20027;-92
2023/09/06 01:53:25;;;;;;;5.05;4.55;;;21.10;99.90;;;;;;4957052;29;20033;-92
2023/09/06 01:55:50;;;;;;;5.28;4.85;;;21.20;99.90;;;;;;4956343;29;20059;-92
2023/09/06 01:58:17;;;;;;;7.22;5.10;;;21.40;99.90;;;;;;4956472;29;20034;-91
2023/09/06 02:00:44;;;;;;;5.20;4.43;;;21.20;99.90;;;;;;4956717;29;20024;-92
2023/09/06 02:03:14;;;;;;;7.38;4.90;;;21.20;99.90;;;;;;4955999;29;20048;-92
2023/09/06 02:05:43;;;;;;;5.03;4.57;;;21.30;99.90;;;;;;4956275;29;20054;-92
2023/09/06 02:08:09;;;;;;;6.45;5.03;;;21.50;99.90;;;;;;4956358;29;20419;-91
2023/09/06 02:10:34;;;;;;;6.60;5.07;;;21.20;99.90;;;;;;4955987;29;20020;-91
2023/09/06 02:13:00;;;;;;;11.52;4.90;;;21.20;99.90;;;;;;4956430;29;20089;-91
2023/09/06 02:15:29;;;;;;;8.38;4.60;;;21.10;99.90;;;;;;4956930;29;20062;-93
2023/09/06 02:17:54;;;;;;;5.10;4.63;;;21.00;99.90;;;;;;4956369;29;20028;-89
2023/09/06 02:20:20;;;;;;;9.07;4.90;;;21.10;99.90;;;;;;4956707;29;20599;-91
2023/09/06 02:22:55;;;;;;;9.05;6.00;;;21.10;99.90;;;;;;4955875;29;20387;-90
2023/09/06 02:25:32;;;;;;;6.32;5.00;;;21.10;99.90;;;;;;4955933;29;20026;-91
2023/09/06 02:28:02;;;;;;;6.53;5.15;;;21.10;99.90;;;;;;4965872;29;20492;-88
2023/09/06 02:30:27;;;;;;;8.75;4.88;;;21.10;99.90;;;;;;4962323;29;20035;-90
2023/09/06 02:32:55;;;;;;;6.70;5.22;;;21.00;99.90;;;;;;4968071;28;20015;-92
2023/09/06 02:35:20;;;;;;;7.75;5.10;;;21.00;99.90;;;;;;4967895;28;20059;-91
2023/09/06 02:37:46;;;;;;;7.70;5.25;;;21.00;99.90;;;;;;4957033;29;20031;-90
2023/09/06 02:40:13;;;;;;;6.32;5.70;;;21.10;99.90;;;;;;4955586;29;20023;-92
2023/09/06 02:42:44;;;;;;;6.00;5.45;;;21.00;99.90;;;;;;4955540;29;20038;-90
2023/09/06 02:45:13;;;;;;;;;;;21.00;99.90;;;;;;4956224;29;20031;-91
2023/09/06 02:47:47;;;;;;;6.30;4.60;;;21.00;99.90;;;;;;4955022;29;19910;-91
2023/09/06 02:50:14;;;;;;;5.20;4.70;;;21.00;99.90;;;;;;4956219;29;20035;-91
2023/09/06 02:52:44;;;;;;;8.70;5.10;;;21.00;99.90;;;;;;4955457;29;20471;-90
2023/09/06 02:55:13;;;;;;;7.47;5.20;;;20.90;99.90;;;;;;4955776;28;20059;-90
2023/09/06 02:57:41;;;;;;;5.18;4.78;;;20.90;99.90;;;;;;4955169;29;20023;-91
2023/09/06 03:00:27;;;;;;;6.22;5.15;;;20.90;99.90;;;;;;4955195;29;20030;-92
2023/09/06 03:03:05;;;;;;;6.47;5.65;;;20.90;99.90;;;;;;4955575;29;20023;-92
2023/09/06 03:05:31;;;;;;;5.30;4.80;;;20.90;99.90;;;;;;4955886;29;20038;-90
2023/09/06 03:07:57;;;;;;;6.28;5.25;;;20.80;99.90;;;;;;4955088;29;20091;-91
2023/09/06 03:10:23;;;;;;;6.25;4.90;;;21.10;99.90;;;;;;4955712;29;20098;-92
2023/09/06 03:12:57;;;;;;;5.32;4.82;;;20.80;99.90;;;;;;4955643;29;20153;-92
2023/09/06 03:15:23;;;;;;;7.93;5.43;;;20.70;99.90;;;;;;4955487;29;20027;-91
2023/09/06 03:17:51;;;;;;;5.97;4.95;;;20.70;99.90;;;;;;4955203;29;20101;-90
2023/09/06 03:20:31;;;;;;;5.78;5.28;;;21.60;99.90;;;;;;4956789;29;20422;-91
2023/09/06 03:22:58;;;;;;;5.47;5.07;;;20.70;99.90;;;;;;4963845;29;20068;-90
2023/09/06 03:25:26;;;;;;;5.90;5.32;;;20.70;99.90;;;;;;4964213;29;20031;-90
2023/09/06 03:27:59;;;;;;;5.65;5.18;;;20.70;99.90;;;;;;4963270;29;20039;-91
2023/09/06 03:30:30;;;;;;;6.82;5.57;;;20.60;99.90;;;;;;4956241;29;20048;-91
2023/09/06 03:32:57;;;;;;;5.50;5.00;;;20.60;99.90;;;;;;4966200;29;20589;-90
2023/09/06 03:35:22;;;;;;;7.03;5.70;;;20.60;99.90;;;;;;4972895;28;20075;-90
2023/09/06 03:37:49;;;;;;;8.52;5.40;;;20.60;99.90;;;;;;4966688;28;20069;-90
2023/09/06 03:40:25;;;;;;;9.40;5.28;;;20.60;99.90;;;;;;4956181;29;20032;-90
2023/09/06 03:42:54;;;;;;;5.50;5.00;;;20.60;99.90;;;;;;4954413;29;20027;-92
2023/09/06 03:45:21;;;;;;;7.45;5.38;;;20.80;99.90;;;;;;4955446;29;20051;-91
2023/09/06 03:47:51;;;;;;;5.88;5.03;;;20.60;99.90;;;;;;4954977;29;20137;-92
2023/09/06 03:50:17;;;;;;;18.65;5.97;;;20.60;99.90;;;;;;4954881;29;20031;-90
2023/09/06 03:52:43;;;;;;;7.53;4.60;;;20.60;99.90;;;;;;4954826;29;20039;-91
2023/09/06 03:55:10;;;;;;;7.40;5.28;;;20.60;99.90;;;;;;4955675;29;20110;-91
2023/09/06 03:57:38;;;;;;;6.18;5.18;;;20.60;99.90;;;;;;4954276;29;20034;-91
2023/09/06 04:03:07;;;;;;;6.35;5.72;;;20.70;99.90;;;;;;4876797;29;20037;-91
2023/09/06 04:05:34;;;;;;;9.13;5.60;;;21.30;99.90;;;;;;4939332;29;20043;-89
2023/09/06 04:08:03;;;;;;;6.30;5.65;;;20.60;99.90;;;;;;4955638;28;20439;-90
2023/09/06 04:10:40;;;;;;;7.70;5.45;;;20.60;99.90;;;;;;4958334;29;20368;-91
2023/09/06 04:13:08;;;;;;;6.90;5.75;;;20.50;99.90;;;;;;4958855;29;20051;-93
2023/09/06 04:15:37;;;;;;;6.82;5.53;;;20.50;99.90;;;;;;4958463;29;20027;-90
2023/09/06 04:18:09;;;;;;;10.53;6.23;;;20.50;99.90;;;;;;4958377;29;20023;-90
2023/09/06 04:20:36;;;;;;;7.18;5.82;;;20.50;99.90;;;;;;4958913;29;20102;-90
2023/09/06 04:23:12;;;;;;;8.25;5.50;;;20.40;99.90;;;;;;4958775;29;20054;-90
2023/09/06 04:25:41;;;;;;;7.00;5.43;;;20.50;99.90;;;;;;4957973;29;20039;-91
2023/09/06 04:28:15;;;;;;;9.63;5.22;;;20.50;99.90;;;;;;4958386;29;20038;-91
2023/09/06 04:30:43;;;;;;;10.50;5.60;;;20.50;99.90;;;;;;4958613;29;20110;-90
2023/09/06 04:33:12;;;;;;;9.85;6.05;;;20.50;99.90;;;;;;4957896;29;20031;-90
2023/09/06 04:35:43;;;;;;;11.93;6.38;;;20.50;99.90;;;;;;4958270;29;20036;-90
2023/09/06 04:38:14;;;;;;;11.52;6.30;;;20.50;99.90;;;;;;4969913;29;20012;-88
2023/09/06 04:40:42;;;;;;;16.63;5.93;;;20.50;99.90;;;;;;4968360;29;20027;-90
2023/09/06 04:43:09;;;;;;;8.65;5.93;;;20.40;99.90;;;;;;4960247;29;20051;-90
2023/09/06 04:45:38;;;;;;;9.45;6.15;;;20.30;99.90;;;;;;4957716;29;20031;-89
2023/09/06 04:48:08;;;;;;;10.32;5.95;;;20.30;99.90;;;;;;4957874;29;20071;-91
2023/09/06 04:50:37;;;;;;;9.60;5.40;;;20.10;99.90;;;;;;4957794;29;20027;-91
2023/09/06 04:53:04;;;;;;;10.88;5.80;;;20.30;99.90;;;;;;4957659;29;20118;-89
2023/09/06 04:55:35;;;;;;;9.65;5.38;;;20.30;99.90;;;;;;4957917;29;20019;-90
2023/09/06 04:58:01;;;;;;;9.38;5.47;;;20.30;99.90;;;;;;4957998;29;20028;-90
2023/09/06 05:00:32;;;;;;;11.93;6.35;;;20.40;99.90;;;;;;4957524;29;20387;-93
2023/09/06 05:02:59;;;;;;;12.93;6.55;;;20.40;99.90;;;;;;4957896;29;20431;-91
2023/09/06 05:05:25;;;;;;;9.55;6.00;;;20.40;99.90;;;;;;4957990;29;20392;-90
2023/09/06 05:07:51;;;;;;;8.48;6.10;;;20.20;99.90;;;;;;4957427;29;20035;-90
2023/09/06 05:10:16;;;;;;;8.32;5.90;;;20.30;99.90;;;;;;4957937;29;20063;-90
2023/09/06 05:12:42;;;;;;;7.53;6.65;;;20.20;99.90;;;;;;4957592;29;20063;-91
2023/09/06 05:15:09;;;;;;;7.75;6.20;;;20.20;99.90;;;;;;4960009;29;20523;-90
2023/09/06 05:17:35;;;;;;;7.40;6.57;;;20.20;99.90;;;;;;4958529;29;20019;-91
2023/09/06 05:20:25;;;;;;;11.38;6.57;;;20.20;99.90;;;;;;4957140;28;20464;-91
2023/09/06 05:22:50;;;;;;;9.48;5.57;;;20.20;99.90;;;;;;4957337;29;20038;-91
2023/09/06 05:25:16;;;;;;;8.25;5.72;;;20.10;99.90;;;;;;4957627;29;20487;-90
2023/09/06 05:27:42;;;;;;;9.75;6.75;;;20.10;99.90;;;;;;4956661;29;20035;-92
2023/09/06 05:30:08;;;;;;;7.63;6.93;;;20.10;99.90;;;;;;4958388;29;20118;-90
2023/09/06 05:32:33;;;;;;;8.15;6.43;;;20.10;99.90;;;;;;4959850;29;20050;-91
2023/09/06 05:34:59;;;;;;;6.90;5.65;;;20.10;99.90;;;;;;4961555;29;20027;-91
2023/09/06 05:37:25;;;;;;;7.68;6.88;;;20.10;99.90;;;;;;4964088;29;20027;-91
2023/09/06 05:39:51;;;;;;;7.10;6.40;;;20.20;99.90;;;;;;4969546;28;20058;-91
2023/09/06 05:42:17;;;;;;;6.60;5.80;;;20.10;99.90;;;;;;4978054;29;20015;-90
2023/09/06 05:44:43;;;;;;;7.68;6.50;;;20.20;99.90;;;;;;4957764;29;20066;-91
2023/09/06 05:47:09;;;;;;;8.10;6.32;;;20.20;99.90;;;;;;4956678;29;20023;-91
2023/09/06 05:49:35;;;;;;;7.65;6.95;;;20.20;99.90;;;;;;4956376;29;20042;-90
2023/09/06 05:52:02;;;;;;;7.38;6.57;;;20.20;99.90;;;;;;4956858;29;20484;-91
2023/09/06 05:54:28;;;;;;;11.60;6.38;;;20.20;99.90;;;;;;4957064;29;20122;-89
2023/09/06 05:56:53;;;;;;;10.15;6.68;;;20.30;99.90;;;;;;4955692;29;20047;-90
2023/09/06 05:59:19;;;;;;;19.73;6.82;;;20.20;99.90;;;;;;4956698;29;20023;-91
2023/09/06 06:01:45;;;;;;;10.27;6.85;;;20.10;99.90;;;;;;4956300;29;20078;-92
2023/09/06 06:04:11;;;;;;;10.77;6.70;;;20.20;99.90;;;;;;4956231;29;20051;-90
2023/09/06 06:06:37;;;;;;;8.10;6.78;;;20.20;99.90;;;;;;4958166;29;20039;-91
2023/09/06 06:09:11;;;;;;;7.80;6.47;;;20.20;99.90;;;;;;4960832;29;20506;-90
2023/09/06 06:11:40;;;;;;;7.95;6.40;;;20.20;99.90;;;;;;4957637;29;20480;-90
2023/09/06 06:14:06;;;;;;;10.27;6.03;;;20.30;99.90;;;;;;4955988;29;20380;-90
2023/09/06 06:16:31;;;;;;;15.98;7.05;;;20.30;99.90;;;;;;4959084;29;20028;-90
2023/09/06 06:18:57;;;;;;;9.70;7.45;;;20.00;99.90;;;;;;4956372;29;20502;-90
2023/09/06 06:21:25;;;;;;;7.55;6.75;;;20.30;99.90;;;;;;4956277;29;20027;-90
2023/09/06 06:23:51;;;;;;;18.05;7.55;;;20.30;99.90;;;;;;4955285;29;20090;-90
2023/09/06 06:26:19;;;;;;;8.90;6.80;;;20.90;99.90;;;;;;4956177;29;20031;-89
2023/09/06 06:28:45;;;;;;;7.72;6.72;;;20.60;99.90;;;;;;4955345;29;20051;-89
2023/09/06 06:31:12;;;;;;;7.32;6.55;;;20.30;99.90;;;;;;4954944;28;20027;-89
2023/09/06 06:33:38;;;;;;;9.15;7.22;;;20.40;99.90;;;;;;4955643;29;20468;-90
2023/09/06 06:36:05;;;;;;;10.70;7.07;;;20.30;99.90;;;;;;4956098;29;20494;-89
2023/09/06 06:38:30;;;;;;;9.65;7.18;;;20.40;99.90;;;;;;4955499;29;20107;-90
2023/09/06 06:40:56;;;;;;;10.93;7.75;;;20.30;99.90;;;;;;4955516;29;20066;-91
2023/09/06 06:43:21;;;;;;;7.38;6.78;;;20.40;99.90;;;;;;4966765;29;20012;-90
2023/09/06 06:45:54;;;;;;;9.27;6.53;;;20.40;99.90;;;;;;4966194;29;20034;-90
2023/09/06 06:48:21;;;;;;;8.90;7.35;;;20.40;99.90;;;;;;4957115;29;20031;-90
2023/09/06 06:50:46;;;;;;;7.15;6.55;;;20.50;99.90;;;;;;4955385;29;20027;-90
2023/09/06 06:53:12;;;;;;;7.68;6.82;;;20.50;99.90;;;;;;4955190;29;20491;-90
2023/09/06 06:55:38;;;;;;;9.43;6.75;;;20.50;99.90;;;;;;4955233;29;20383;-90
2023/09/06 06:58:05;;;;;;;8.45;7.45;;;20.60;99.90;;;;;;4955163;29;20103;-90
2023/09/06 07:00:31;;;;;;;7.90;7.10;;;20.60;99.90;;;;;;4955830;29;20027;-90
2023/09/06 07:02:58;;;;;;;8.15;6.63;;;20.60;99.90;;;;;;4957434;29;20070;-90
2023/09/06 07:05:24;;;;;;;7.80;7.10;;;20.60;99.90;;;;;;4956592;29;20027;-90
2023/09/06 07:07:49;;;;;;;11.02;7.45;;;20.70;99.90;;;;;;4954831;29;20050;-89
2023/09/06 07:10:16;;;;;;;9.48;6.93;;;20.70;99.90;;;;;;4956461;29;20046;-89
2023/09/06 07:12:42;;;;;;;11.55;7.32;;;20.70;99.90;;;;;;4954489;29;20035;-90
2023/09/06 07:15:07;;;;;;;14.35;8.18;;;20.90;99.90;;;;;;4955577;29;20482;-90
2023/09/06 07:17:33;;;;;;;13.82;7.82;;;20.80;99.90;;;;;;4955122;29;20050;-90
2023/09/06 07:19:59;;;;;;;7.80;6.90;;;20.80;99.90;;;;;;4954838;29;20784;-89
2023/09/06 07:22:25;;;;;;;17.88;8.18;;;20.90;99.90;;;;;;4954877;29;20041;-90
2023/09/06 07:24:51;;;;;;;8.80;7.97;;;20.90;99.90;;;;;;4954490;29;20027;-89
2023/09/06 07:27:17;;;;;;;8.43;7.65;;;21.00;99.90;;;;;;4955407;29;20128;-89
2023/09/06 07:29:42;;;;;;;10.88;8.75;;;21.00;99.90;;;;;;4954704;29;20055;-89
2023/09/06 07:32:08;;;;;;;9.93;8.13;;;20.90;99.90;;;;;;4954878;29;20419;-90
2023/09/06 07:34:33;;;;;;;9.50;8.23;;;21.00;99.90;;;;;;4954276;29;20491;-89
2023/09/06 07:37:00;;;;;;;10.40;7.82;;;21.10;99.90;;;;;;4954412;29;20135;-89
2023/09/06 07:39:26;;;;;;;10.73;8.07;;;21.20;99.90;;;;;;4954449;29;20106;-89
2023/09/06 07:41:55;;;;;;;12.23;8.02;;;21.20;99.90;;;;;;4954690;28;20023;-90
2023/09/06 07:44:21;;;;;;;10.63;8.83;;;21.10;99.90;;;;;;4959249;29;20027;-91
2023/09/06 07:46:48;;;;;;;11.65;8.35;;;21.30;99.90;;;;;;4971721;29;20262;-90
2023/09/06 07:49:18;;;;;;;13.52;8.70;;;21.30;99.90;;;;;;4970544;28;20043;-91
2023/09/06 07:51:44;;;;;;;8.93;7.93;;;22.00;99.90;;;;;;4959875;29;20023;-90
2023/09/06 07:54:10;;;;;;;11.95;9.32;;;21.40;99.90;;;;;;4958979;29;20035;-90
2023/09/06 07:56:36;;;;;;;11.98;9.40;;;21.40;99.90;;;;;;4958891;29;20038;-90
2023/09/06 07:59:01;;;;;;;8.18;7.47;;;22.00;99.90;;;;;;4961945;29;20031;-90
2023/09/06 08:01:27;;;;;;;9.15;8.35;;;21.60;99.90;;;;;;4958425;29;20023;-90
2023/09/06 08:03:52;;;;;;;9.93;8.93;;;21.60;99.90;;;;;;4957254;29;20102;-89
2023/09/06 08:06:18;;;;;;;8.27;7.47;;;21.60;99.90;;;;;;4958681;29;20356;-90
2023/09/06 08:08:44;;;;;;;8.45;7.20;;;21.70;99.90;;;;;;4958197;29;20062;-89
2023/09/06 08:11:10;;;;;;;9.93;7.82;;;21.70;99.90;;;;;;4957673;29;20481;-90
2023/09/06 08:13:38;;;;;;;9.00;6.90;;;21.80;99.90;;;;;;4958105;29;20099;-89
2023/09/06 08:16:05;;;;;;;10.35;7.18;;;21.90;99.90;;;;;;4957532;29;20019;-89
2023/09/06 08:18:30;;;;;;;8.20;7.40;;;21.80;99.90;;;;;;4958168;29;20036;-90
2023/09/06 08:20:56;;;;;;;7.55;6.68;;;21.90;99.90;;;;;;4958224;29;20038;-89
2023/09/06 08:23:22;;;;;;;7.82;6.35;;;21.90;99.90;;;;;;4957981;29;20078;-89
2023/09/06 08:25:48;;;;;;;6.85;6.22;;;22.00;99.90;;;;;;4958194;29;20054;-89
2023/09/06 08:28:15;;;;;;;7.95;5.95;;;22.00;99.90;;;;;;4959446;29;20043;-90
2023/09/06 08:30:42;;;;;;;8.00;5.70;;;22.10;99.90;;;;;;4957422;29;20066;-90
2023/09/06 08:33:08;;;;;;;5.93;5.30;;;22.00;99.90;;;;;;4958414;29;20031;-89
2023/09/06 08:35:34;;;;;;;5.68;4.97;;;22.20;99.90;;;;;;4958189;29;20027;-90
2023/09/06 08:37:59;;;;;;;10.20;4.63;;;22.20;99.90;;;;;;4957497;29;20090;-89
2023/09/06 08:40:25;;;;;;;11.05;5.93;;;22.30;99.90;;;;;;4958452;29;20472;-90
2023/09/06 08:42:55;;;;;;;7.57;4.90;;;22.30;99.90;;;;;;4958008;29;20030;-90
2023/09/06 08:45:22;;;;;;;4.68;4.18;;;22.30;99.90;;;;;;4957884;29;20023;-90
2023/09/06 08:47:48;;;;;;;6.50;4.85;;;22.40;99.90;;;;;;4957804;29;20129;-89
2023/09/06 08:50:14;;;;;;;5.40;4.90;;;22.50;99.90;;;;;;4972153;28;20021;-88
2023/09/06 08:52:41;;;;;;;4.32;4.03;;;22.50;99.90;;;;;;4968335;29;20027;-89
2023/09/06 08:55:12;;;;;;;5.60;4.50;;;22.60;99.90;;;;;;4959192;28;20094;-90
2023/09/06 08:57:41;;;;;;;5.13;4.18;;;22.60;99.90;;;;;;4958256;29;20102;-90
2023/09/06 09:00:09;;;;;;;8.57;4.75;;;22.60;99.90;;;;;;4958355;29;20042;-89
2023/09/06 09:02:36;;;;;;;9.15;4.15;;;22.70;99.90;;;;;;4958265;29;20023;-90
2023/09/06 09:05:04;;;;;;;6.38;4.38;;;22.80;99.90;;;;;;4959357;29;20032;-90
2023/09/06 09:07:30;;;;;;;7.13;3.97;;;22.80;99.90;;;;;;4957526;29;20541;-91
2023/09/06 09:10:03;;;;;;;8.05;4.90;;;22.90;99.90;;;;;;4957837;29;20031;-90
2023/09/06 09:12:30;;;;;;;6.75;5.35;;;23.00;99.90;;;;;;4956931;29;20031;-90
2023/09/06 09:14:56;;;;;;;9.77;5.07;;;23.00;99.90;;;;;;4958062;29;20248;-90
2023/09/06 09:17:23;;;;;;;10.02;4.93;;;23.00;99.90;;;;;;4957689;29;20038;-90
2023/09/06 09:19:53;;;;;;;7.70;4.65;;;23.10;99.90;;;;;;4956811;29;20031;-89
2023/09/06 09:22:30;;;;;;;9.35;4.78;;;23.60;99.90;;;;;;4957498;29;20019;-90
2023/09/06 09:25:24;;;;;;;4.75;4.35;;;23.20;99.90;;;;;;4957834;29;20114;-91
2023/09/06 09:27:57;;;;;;;14.43;5.00;;;23.20;99.90;;;;;;4957064;29;20031;-90
2023/09/06 09:30:23;;;;;;;4.68;4.03;;;23.30;99.90;;;;;;4958150;29;20091;-91
2023/09/06 09:32:56;;;;;;;11.07;4.15;;;23.30;99.90;;;;;;4957329;29;20506;-90
2023/09/06 09:35:22;;;;;;;4.22;3.83;;;23.40;99.90;;;;;;4957822;29;20066;-90
2023/09/06 09:37:51;;;;;;;5.30;4.35;;;23.50;99.90;;;;;;4957346;29;20031;-91
2023/09/06 09:40:21;;;;;;;5.72;3.92;;;23.50;99.90;;;;;;4957718;29;20031;-90
2023/09/06 09:42:57;;;;;;;5.70;5.10;;;23.50;99.90;;;;;;4957352;29;20079;-90
2023/09/06 09:45:28;;;;;;;7.78;5.53;;;23.60;99.90;;;;;;4959036;29;20080;-90
2023/09/06 09:47:55;;;;;;;10.75;5.03;;;23.70;99.90;;;;;;4956661;29;20043;-91
2023/09/06 09:50:29;;;;;;;6.85;5.07;;;23.70;99.90;;;;;;4957826;29;20106;-91
2023/09/06 09:52:56;;;;;;;5.18;4.78;;;23.60;99.90;;;;;;4973289;28;20031;-90
2023/09/06 09:55:28;;;;;;;5.13;4.63;;;23.80;99.90;;;;;;4964061;29;20035;-91
2023/09/06 09:57:56;;;;;;;4.45;4.05;;;23.80;99.90;;;;;;4958718;29;20035;-90
2023/09/06 10:00:27;;;;;;;5.70;4.13;;;23.90;99.90;;;;;;4957949;29;20034;-92
2023/09/06 10:02:57;;;;;;;10.32;4.35;;;23.90;99.90;;;;;;4958162;29;20050;-90
2023/09/06 10:05:26;;;;;;;8.63;3.95;;;23.90;99.90;;;;;;4956955;28;20487;-91
2023/09/06 10:07:54;;;;;;;5.35;4.55;;;24.00;99.90;;;;;;4956645;29;20035;-91
2023/09/06 10:10:21;;;;;;;8.35;4.60;;;24.10;99.90;;;;;;4956760;29;20027;-90
2023/09/06 10:12:49;;;;;;;10.95;4.85;;;24.10;99.90;;;;;;4956788;29;20031;-91
2023/09/06 10:15:19;;;;;;;6.90;4.45;;;24.10;99.90;;;;;;4957554;29;20066;-92
2023/09/06 10:17:47;;;;;;;6.47;4.18;;;24.20;99.90;;;;;;4965404;29;20062;-91
2023/09/06 10:20:16;;;;;;;6.57;4.18;;;24.20;99.90;;;;;;4960539;29;20032;-90
2023/09/06 10:22:44;;;;;;;5.80;4.13;;;24.20;99.90;;;;;;4964828;29;20031;-90
2023/09/06 10:25:10;;;;;;;4.47;4.07;;;24.20;99.90;;;;;;4968352;29;20019;-90
2023/09/06 10:27:49;;;;;;;3.95;3.55;;;24.40;99.90;;;;;;4969042;29;20035;-90
2023/09/06 10:30:17;;;;;;;6.40;4.65;;;24.40;99.90;;;;;;4961038;29;20059;-91
2023/09/06 10:32:47;;;;;;;8.48;4.55;;;24.40;99.90;;;;;;4968223;28;20087;-91
2023/09/06 10:35:29;;;;;;;4.37;3.87;;;24.50;99.90;;;;;;4979853;28;20015;-89
2023/09/06 10:38:15;;;;;;;5.18;4.03;;;24.50;99.90;;;;;;4962696;29;20082;-90
2023/09/06 10:41:07;;;;;;;4.03;3.58;;;24.50;99.90;;;;;;4967069;28;20030;-90
2023/09/06 10:44:03;;;;;;;3.13;2.90;;;24.60;99.90;;;;;;4971965;28;20023;-91
2023/09/06 10:46:33;;;;;;;3.38;3.10;;;24.60;99.90;;;;;;4963995;29;20023;-91
2023/09/06 10:49:14;;;;;;;;;;;24.60;99.90;;;;;;4961993;29;20050;-89
2023/09/06 10:51:57;;;;;;;5.80;3.20;;;24.70;99.90;;;;;;4955730;29;19953;-91
2023/09/06 10:54:43;;;;;;;4.47;3.25;;;24.80;99.90;;;;;;4957095;29;20110;-91
2023/09/06 10:57:15;;;;;;;3.65;2.85;;;24.80;99.90;;;;;;4969460;29;20040;-91
2023/09/06 10:59:58;;;;;;;7.85;3.00;;;24.90;99.90;;;;;;4955977;29;20486;-91
2023/09/06 11:02:27;;;;;;;4.93;2.90;;;25.00;99.90;;;;;;4956297;29;20031;-91
2023/09/06 11:05:11;;;;;;;4.63;3.67;;;25.10;99.90;;;;;;4955204;29;20079;-91
2023/09/06 11:07:41;;;;;;;3.28;2.95;;;25.10;99.90;;;;;;4955414;29;20035;-92
2023/09/06 11:10:09;;;;;;;3.08;2.75;;;25.10;99.90;;;;;;4955839;29;20476;-90
2023/09/06 11:12:35;;;;;;;3.17;2.67;;;25.20;99.90;;;;;;4939051;29;20055;-91
2023/09/06 11:15:01;;;;;;;3.90;2.67;;;25.20;99.90;;;;;;4957740;29;20082;-90
2023/09/06 11:17:27;;;;;;;2.83;2.40;;;25.30;99.90;;;;;;4958329;28;20027;-91
2023/09/06 11:19:52;;;;;;;3.97;3.17;;;25.30;99.90;;;;;;4955293;29;20020;-91
2023/09/06 11:22:22;;;;;;;2.97;2.53;;;25.30;99.90;;;;;;4955578;29;20037;-92
2023/09/06 11:24:48;;;;;;;5.50;2.90;;;25.40;99.90;;;;;;4955184;29;20495;-90
2023/09/06 11:27:33;;;;;;;2.78;2.47;;;25.40;99.90;;;;;;4955207;29;20027;-92
2023/09/06 11:30:16;;;;;;;4.53;2.88;;;25.50;99.90;;;;;;4955630;29;20083;-90
2023/09/06 11:32:45;;;;;;;6.15;3.15;;;25.60;99.90;;;;;;4955794;29;20055;-90
2023/09/06 11:35:11;;;;;;;4.80;2.33;;;25.70;99.90;;;;;;4956346;29;20031;-91
2023/09/06 11:37:42;;;;;;;5.38;2.53;;;25.70;99.90;;;;;;4955288;29;20059;-91
2023/09/06 11:40:14;;;;;;;4.32;2.50;;;25.80;99.90;;;;;;4955025;29;20035;-91
2023/09/06 11:42:48;;;;;;;3.15;2.95;;;25.80;99.90;;;;;;4955252;29;20035;-90
2023/09/06 11:45:17;;;;;;;5.57;3.22;;;25.90;99.90;;;;;;4955737;29;20070;-92
2023/09/06 11:47:44;;;;;;;7.80;3.20;;;26.00;99.90;;;;;;4955892;29;20036;-91
2023/09/06 11:50:12;;;;;;;3.38;3.08;;;26.00;99.90;;;;;;4955541;29;20031;-90
2023/09/06 11:52:40;;;;;;;3.22;2.92;;;26.00;99.90;;;;;;4955364;29;20031;-91
2023/09/06 11:55:09;;;;;;;4.00;2.85;;;26.10;99.90;;;;;;4956908;29;20090;-91
2023/09/06 11:57:38;;;;;;;11.10;3.20;;;26.10;99.90;;;;;;4959525;29;20114;-92
2023/09/06 12:00:35;;;;;;;4.05;2.72;;;26.20;99.90;;;;;;4969751;29;20095;-91
2023/09/06 12:03:08;;;;;;;;;;;26.20;99.90;;;;;;4955109;29;20055;-92
2023/09/06 12:05:44;;;;;;;3.05;2.75;;;26.30;99.90;;;;;;4955120;29;19913;-91
2023/09/06 12:08:15;;;;;;;5.05;2.97;;;26.30;99.90;;;;;;4954473;29;20043;-91
2023/09/06 12:10:49;;;;;;;4.25;2.65;;;26.30;99.90;;;;;;4955494;29;20055;-92
2023/09/06 12:13:25;;;;;;;4.80;3.03;;;26.40;99.90;;;;;;4955365;29;20063;-92
2023/09/06 12:15:51;;;;;;;5.90;3.35;;;26.40;99.90;;;;;;4954391;29;20031;-91
2023/09/06 12:18:17;;;;;;;6.63;3.20;;;26.50;99.90;;;;;;4955652;29;20042;-90
2023/09/06 12:20:43;;;;;;;3.90;2.67;;;26.60;99.90;;;;;;4954934;29;20026;-92
2023/09/06 12:23:09;;;;;;;3.00;2.75;;;26.60;99.90;;;;;;4954546;29;20483;-90
2023/09/06 12:25:34;;;;;;;8.77;2.65;;;26.70;99.90;;;;;;4955379;29;20024;-90
2023/09/06 12:28:01;;;;;;;6.03;2.50;;;26.70;99.90;;;;;;4956403;28;20035;-91
2023/09/06 12:30:27;;;;;;;5.43;3.80;;;26.90;99.90;;;;;;4958714;29;20051;-92
2023/09/06 12:32:53;;;;;;;4.05;2.80;;;26.80;99.90;;;;;;4958472;29;20035;-92
2023/09/06 12:35:18;;;;;;;3.85;3.45;;;26.90;99.90;;;;;;4958566;29;20034;-92
2023/09/06 12:37:45;;;;;;;3.88;2.78;;;27.00;99.90;;;;;;4957783;29;20020;-91
2023/09/06 12:40:13;;;;;;;8.10;2.80;;;27.00;99.90;;;;;;4958705;29;20530;-92
2023/09/06 12:42:43;;;;;;;3.05;2.80;;;27.00;99.90;;;;;;4958436;29;20031;-90
2023/09/06 12:45:09;;;;;;;;;;;27.10;99.90;;;;;;4958580;29;20174;-91
2023/09/06 12:47:38;;;;;;;4.65;2.78;;;27.10;99.90;;;;;;4958297;29;19978;-91
2023/09/06 12:50:05;;;;;;;6.03;3.03;;;27.10;99.90;;;;;;4958375;29;20034;-91
2023/09/06 12:52:32;;;;;;;2.83;2.63;;;27.20;99.90;;;;;;4958217;29;20041;-91
2023/09/06 12:54:57;;;;;;;4.03;3.00;;;27.30;99.90;;;;;;4958220;29;20027;-92